Time;durP1;ratioP1;P1;durP2;ratioP2;P2;SDS_P1;SDS_P2;PMS_P1;PMS_P2;Temp;Humidity;BMP_temperature;BMP_pressure;BME280_temperature;BME280_humidity;BME280_pressure;Samples;Min_cycle;Max_cycle;Signal;HPM_P1;HPM_P2
2021/10/11 00:00:37;;;;;;;10.85;7.47;;;11.70;90.80;;;;;;5010364;28;20030;-75
2021/10/11 00:03:03;;;;;;;13.95;7.47;;;11.70;90.80;;;;;;5004296;28;20089;-75
2021/10/11 00:05:29;;;;;;;12.68;8.05;;;11.70;90.90;;;;;;4987978;28;20601;-76
2021/10/11 00:07:55;;;;;;;11.27;7.63;;;11.60;90.90;;;;;;5010689;28;20048;-75
2021/10/11 00:10:20;;;;;;;10.68;7.47;;;11.60;91.00;;;;;;5011802;28;20042;-75
2021/10/11 00:12:51;;;;;;;10.85;7.70;;;11.60;91.10;;;;;;5011604;28;20033;-78
2021/10/11 00:15:19;;;;;;;15.30;7.85;;;11.50;91.20;;;;;;5011964;28;20084;-75
2021/10/11 00:17:46;;;;;;;12.88;8.30;;;11.50;91.30;;;;;;5006432;28;20022;-75
2021/10/11 00:20:12;;;;;;;13.45;8.02;;;11.50;91.30;;;;;;5004593;28;20068;-75
2021/10/11 00:22:38;;;;;;;12.43;8.25;;;11.40;91.30;;;;;;5001919;28;20058;-76
2021/10/11 00:25:05;;;;;;;9.40;7.13;;;11.40;91.40;;;;;;5006901;28;20076;-76
2021/10/11 00:27:31;;;;;;;12.57;7.90;;;11.40;91.40;;;;;;5005728;28;20038;-75
2021/10/11 00:29:58;;;;;;;14.90;7.88;;;11.30;91.50;;;;;;5008408;28;20033;-75
2021/10/11 00:32:24;;;;;;;16.65;8.43;;;11.30;91.50;;;;;;5011150;28;20041;-75
2021/10/11 00:34:49;;;;;;;10.43;7.18;;;11.40;91.50;;;;;;5008979;28;20038;-76
2021/10/11 00:37:15;;;;;;;12.15;7.75;;;11.40;91.50;;;;;;5011377;28;20176;-74
2021/10/11 00:39:41;;;;;;;12.50;6.80;;;11.50;91.50;;;;;;5010399;28;20057;-77
2021/10/11 00:42:07;;;;;;;14.65;7.97;;;11.50;91.50;;;;;;5010381;28;20382;-80
2021/10/11 00:44:32;;;;;;;13.40;7.93;;;11.60;91.60;;;;;;5010603;28;20026;-75
2021/10/11 00:46:58;;;;;;;12.52;7.13;;;11.60;91.60;;;;;;5012391;28;20030;-77
2021/10/11 00:49:24;;;;;;;10.82;6.80;;;11.60;91.50;;;;;;5010456;28;20046;-74
2021/10/11 00:51:50;;;;;;;12.32;6.07;;;11.70;91.50;;;;;;5010484;28;20026;-74
2021/10/11 00:54:16;;;;;;;12.25;6.50;;;11.70;91.50;;;;;;5010742;28;20559;-75
2021/10/11 00:56:41;;;;;;;15.10;6.70;;;11.70;91.50;;;;;;5009501;28;20029;-75
2021/10/11 00:59:07;;;;;;;10.20;6.35;;;11.80;91.50;;;;;;5004887;28;20437;-74
2021/10/11 01:01:33;;;;;;;12.73;6.28;;;11.80;91.50;;;;;;5012074;28;20026;-78
2021/10/11 01:03:59;;;;;;;10.35;5.75;;;11.80;91.50;;;;;;5009075;28;20022;-75
2021/10/11 01:06:25;;;;;;;11.68;6.60;;;11.80;91.40;;;;;;4985983;28;20472;-77
2021/10/11 01:08:51;;;;;;;10.65;5.88;;;11.80;91.40;;;;;;4994219;28;20476;-77
2021/10/11 01:11:17;;;;;;;12.05;6.20;;;11.80;91.40;;;;;;5011028;28;20030;-79
2021/10/11 01:13:43;;;;;;;10.48;5.70;;;11.70;91.40;;;;;;5010779;28;20456;-75
2021/10/11 01:16:08;;;;;;;13.32;6.93;;;11.70;91.40;;;;;;5009802;28;20036;-77
2021/10/11 01:18:34;;;;;;;11.18;6.22;;;11.60;91.40;;;;;;5006296;28;20034;-84
2021/10/11 01:21:00;;;;;;;11.18;6.47;;;11.60;91.40;;;;;;5010146;28;20030;-77
2021/10/11 01:23:26;;;;;;;10.07;5.82;;;11.60;91.40;;;;;;5006627;28;20116;-75
2021/10/11 01:25:54;;;;;;;11.77;6.47;;;11.50;91.50;;;;;;5012620;28;20045;-75
2021/10/11 01:28:20;;;;;;;13.73;6.15;;;11.50;91.60;;;;;;5004479;28;20018;-75
2021/10/11 01:30:46;;;;;;;8.05;5.28;;;11.40;91.50;;;;;;5014459;28;20523;-75
2021/10/11 01:33:12;;;;;;;12.10;6.70;;;11.40;91.50;;;;;;5005249;28;20038;-75
2021/10/11 01:35:38;;;;;;;14.88;5.90;;;11.30;91.60;;;;;;5009082;28;20034;-76
2021/10/11 01:38:04;;;;;;;10.38;5.78;;;11.30;91.70;;;;;;5003984;28;20033;-81
2021/10/11 01:40:30;;;;;;;12.32;5.85;;;11.30;91.70;;;;;;4992913;28;20037;-76
2021/10/11 01:42:55;;;;;;;10.90;5.25;;;11.20;91.60;;;;;;5005270;28;20038;-74
2021/10/11 01:45:21;;;;;;;10.98;5.13;;;11.20;91.60;;;;;;5006606;28;20532;-75
2021/10/11 01:47:47;;;;;;;11.38;5.43;;;11.20;91.60;;;;;;5008785;28;20083;-75
2021/10/11 01:50:12;;;;;;;14.43;5.38;;;11.10;91.60;;;;;;5006945;28;20112;-74
2021/10/11 01:52:40;;;;;;;13.07;5.07;;;11.10;91.50;;;;;;5008607;28;20026;-78
2021/10/11 01:55:06;;;;;;;11.32;5.22;;;11.10;91.40;;;;;;5004496;28;20489;-75
2021/10/11 01:57:32;;;;;;;10.73;4.45;;;11.10;91.30;;;;;;5008195;28;20018;-74
2021/10/11 01:59:58;;;;;;;12.02;4.28;;;11.00;91.20;;;;;;5008122;28;20384;-74
2021/10/11 02:02:23;;;;;;;11.18;4.53;;;11.00;91.30;;;;;;5003953;28;20485;-75
2021/10/11 02:04:49;;;;;;;12.43;4.72;;;10.90;91.10;;;;;;5008361;28;20028;-75
2021/10/11 02:07:15;;;;;;;10.57;4.85;;;10.90;91.00;;;;;;5004669;28;20029;-75
2021/10/11 02:09:40;;;;;;;10.57;4.53;;;10.80;91.10;;;;;;5005297;28;20488;-74
2021/10/11 02:12:06;;;;;;;12.20;4.50;;;10.70;91.00;;;;;;5007802;28;20189;-75
2021/10/11 02:14:32;;;;;;;10.90;4.18;;;10.70;90.90;;;;;;5007916;28;20041;-75
2021/10/11 02:16:58;;;;;;;13.82;4.82;;;10.70;90.80;;;;;;5010198;28;20038;-75
2021/10/11 02:19:24;;;;;;;13.18;4.90;;;10.60;90.80;;;;;;5005451;28;21103;-77
2021/10/11 02:21:50;;;;;;;11.13;4.47;;;10.60;90.70;;;;;;5008176;28;20038;-75
2021/10/11 02:24:16;;;;;;;14.57;4.85;;;10.60;90.50;;;;;;5006662;28;20045;-75
2021/10/11 02:26:41;;;;;;;7.57;3.80;;;10.60;90.40;;;;;;5008454;28;20440;-75
2021/10/11 02:29:07;;;;;;;9.70;4.03;;;10.60;90.10;;;;;;5006184;28;20084;-74
2021/10/11 02:31:33;;;;;;;12.80;4.50;;;10.60;90.20;;;;;;5010296;28;20022;-76
2021/10/11 02:33:58;;;;;;;10.15;4.55;;;10.50;90.10;;;;;;5008414;28;20034;-76
2021/10/11 02:36:24;;;;;;;15.05;4.22;;;10.50;90.10;;;;;;5006457;28;20026;-74
2021/10/11 02:38:50;;;;;;;8.68;3.95;;;10.40;90.10;;;;;;4989691;28;20054;-74
2021/10/11 02:41:16;;;;;;;10.82;4.57;;;10.30;90.10;;;;;;5005464;28;20065;-80
2021/10/11 02:43:41;;;;;;;9.02;4.50;;;10.30;90.10;;;;;;5010300;28;20412;-76
2021/10/11 02:46:07;;;;;;;11.85;4.93;;;10.20;89.90;;;;;;5006645;28;20088;-79
2021/10/11 02:48:33;;;;;;;10.10;4.10;;;10.20;89.90;;;;;;5004509;28;20104;-75
2021/10/11 02:50:59;;;;;;;12.18;4.50;;;10.20;89.90;;;;;;5005944;28;20034;-75
2021/10/11 02:53:25;;;;;;;11.25;4.95;;;10.10;89.90;;;;;;5006935;28;20064;-76
2021/10/11 02:55:51;;;;;;;11.15;4.50;;;10.10;90.00;;;;;;5006876;28;20453;-78
2021/10/11 02:58:16;;;;;;;11.25;4.65;;;10.10;90.10;;;;;;5005446;28;20436;-75
2021/10/11 03:00:42;;;;;;;11.52;4.78;;;10.10;90.10;;;;;;5005634;28;20412;-76
2021/10/11 03:03:08;;;;;;;11.95;4.55;;;10.00;90.20;;;;;;5004176;28;20021;-74
2021/10/11 03:05:34;;;;;;;9.68;4.95;;;9.90;90.20;;;;;;5004983;28;20068;-75
2021/10/11 03:08:00;;;;;;;10.38;4.43;;;9.90;90.40;;;;;;5002488;28;20480;-75
2021/10/11 03:10:25;;;;;;;11.05;5.15;;;9.90;90.50;;;;;;4999475;28;20517;-75
2021/10/11 03:12:51;;;;;;;11.93;4.90;;;9.80;90.60;;;;;;4989176;28;20033;-77
2021/10/11 03:15:17;;;;;;;10.85;4.63;;;9.90;90.50;;;;;;5008244;28;20045;-76
2021/10/11 03:17:42;;;;;;;11.25;4.95;;;9.80;90.50;;;;;;5007164;28;20084;-75
2021/10/11 03:20:09;;;;;;;14.13;4.65;;;9.70;90.40;;;;;;5006035;28;20077;-75
2021/10/11 03:22:34;;;;;;;10.73;4.53;;;9.70;90.30;;;;;;5005285;28;20085;-74
2021/10/11 03:25:00;;;;;;;9.68;4.22;;;9.70;90.30;;;;;;5007599;28;20042;-75
2021/10/11 03:27:26;;;;;;;9.38;4.50;;;9.60;90.20;;;;;;5006323;28;20022;-80
2021/10/11 03:29:52;;;;;;;11.07;4.53;;;9.60;90.20;;;;;;5005480;28;20058;-77
2021/10/11 03:32:17;;;;;;;12.65;5.20;;;9.60;90.40;;;;;;5005706;28;20030;-75
2021/10/11 03:34:43;;;;;;;10.27;5.10;;;9.50;90.50;;;;;;5005627;28;20029;-75
2021/10/11 03:37:09;;;;;;;11.25;4.75;;;9.50;90.60;;;;;;4985414;28;20377;-75
2021/10/11 03:39:34;;;;;;;10.10;4.78;;;9.50;90.70;;;;;;4989248;28;20042;-83
2021/10/11 03:42:00;;;;;;;9.80;4.50;;;9.40;90.80;;;;;;5010405;28;20119;-77
2021/10/11 03:44:26;;;;;;;14.85;5.20;;;9.40;90.90;;;;;;5009140;28;20042;-75
2021/10/11 03:46:51;;;;;;;11.82;4.80;;;9.40;90.90;;;;;;5010163;28;20062;-75
2021/10/11 03:49:17;;;;;;;12.73;5.18;;;9.30;90.90;;;;;;5009027;28;20046;-75
2021/10/11 03:51:43;;;;;;;11.02;5.35;;;9.30;90.90;;;;;;5008059;28;20030;-75
2021/10/11 03:54:08;;;;;;;13.20;6.22;;;9.30;90.90;;;;;;4989243;28;20037;-75
2021/10/11 03:56:34;;;;;;;11.15;5.57;;;9.20;90.90;;;;;;5009181;28;20053;-75
2021/10/11 03:59:00;;;;;;;11.63;5.35;;;9.20;90.90;;;;;;5005157;28;20046;-75
2021/10/11 04:01:26;;;;;;;10.77;5.05;;;9.20;90.80;;;;;;5006599;28;20037;-76
2021/10/11 04:03:53;;;;;;;11.40;5.43;;;9.10;90.80;;;;;;5009425;28;20058;-75
2021/10/11 04:06:18;;;;;;;9.93;5.00;;;9.10;90.80;;;;;;5006788;28;20470;-74
2021/10/11 04:08:46;;;;;;;12.35;5.95;;;9.10;90.80;;;;;;5009470;28;20088;-74
2021/10/11 04:13:42;;;;;;;10.38;5.10;;;9.10;90.70;;;;;;5010278;28;20091;-75
2021/10/11 04:16:08;;;;;;;10.45;4.72;;;9.00;90.80;;;;;;5007130;28;20078;-75
2021/10/11 04:18:34;;;;;;;12.50;5.28;;;9.00;90.70;;;;;;5010857;28;20060;-74
2021/10/11 04:21:00;;;;;;;10.23;4.82;;;9.00;90.70;;;;;;5007784;28;20025;-75
2021/10/11 04:23:26;;;;;;;8.25;4.35;;;8.90;90.70;;;;;;4989134;28;20084;-77
2021/10/11 04:25:52;;;;;;;9.05;4.65;;;8.90;90.60;;;;;;5006438;28;20033;-75
2021/10/11 04:28:18;;;;;;;10.82;4.53;;;8.90;90.60;;;;;;5006915;28;20050;-74
2021/10/11 04:30:44;;;;;;;10.32;4.90;;;8.90;90.60;;;;;;5007558;28;20637;-76
2021/10/11 04:33:10;;;;;;;9.95;4.53;;;8.80;90.70;;;;;;5007083;28;20096;-76
2021/10/11 04:35:36;;;;;;;11.95;5.00;;;8.80;90.70;;;;;;5008596;28;20034;-75
2021/10/11 04:38:02;;;;;;;12.02;4.68;;;8.80;90.60;;;;;;5006925;28;20126;-75
2021/10/11 04:40:28;;;;;;;11.55;5.18;;;8.70;90.50;;;;;;4990164;28;20037;-77
2021/10/11 04:42:53;;;;;;;9.85;4.68;;;8.70;90.40;;;;;;5008324;28;20022;-75
2021/10/11 04:45:20;;;;;;;9.25;4.88;;;8.60;90.40;;;;;;5006730;28;20457;-78
2021/10/11 04:47:46;;;;;;;12.75;5.25;;;8.60;90.40;;;;;;5006721;28;20113;-75
2021/10/11 04:50:12;;;;;;;12.63;5.07;;;8.50;90.50;;;;;;5006530;28;20124;-75
2021/10/11 04:52:37;;;;;;;14.07;4.47;;;8.60;90.60;;;;;;5007370;28;20030;-76
2021/10/11 04:55:03;;;;;;;9.02;4.82;;;8.50;90.60;;;;;;5007397;28;20434;-77
2021/10/11 04:57:29;;;;;;;11.15;4.95;;;8.50;90.60;;;;;;5006628;28;20455;-75
2021/10/11 04:59:54;;;;;;;10.98;4.60;;;8.40;90.60;;;;;;5008503;28;20037;-75
2021/10/11 05:02:20;;;;;;;11.15;4.25;;;8.50;90.60;;;;;;5006358;28;20485;-76
2021/10/11 05:04:46;;;;;;;10.57;5.05;;;8.40;90.40;;;;;;5009012;28;20175;-75
2021/10/11 05:07:11;;;;;;;11.40;5.20;;;8.40;90.40;;;;;;5006767;28;20049;-78
2021/10/11 05:09:37;;;;;;;13.52;5.45;;;8.40;90.50;;;;;;5007977;28;20049;-78
2021/10/11 05:12:03;;;;;;;10.57;5.20;;;8.40;90.50;;;;;;5006083;28;20576;-74
2021/10/11 05:14:29;;;;;;;9.93;5.65;;;8.30;90.50;;;;;;5006509;28;20488;-76
2021/10/11 05:16:55;;;;;;;10.85;6.00;;;8.30;90.40;;;;;;5009004;28;20120;-74
2021/10/11 05:19:25;;;;;;;10.43;5.43;;;8.30;90.40;;;;;;5005381;28;20029;-75
2021/10/11 05:21:52;;;;;;;11.50;5.47;;;8.30;90.40;;;;;;5008285;28;20065;-76
2021/10/11 05:24:18;;;;;;;12.23;5.55;;;8.30;90.50;;;;;;5007629;28;20038;-77
2021/10/11 05:26:44;;;;;;;11.10;5.85;;;8.30;90.50;;;;;;5003661;28;20041;-74
2021/10/11 05:29:10;;;;;;;13.70;5.45;;;8.20;90.50;;;;;;5003673;28;20038;-75
2021/10/11 05:31:37;;;;;;;12.57;5.90;;;8.30;90.60;;;;;;5008166;28;20474;-76
2021/10/11 05:34:04;;;;;;;11.45;5.53;;;8.30;90.50;;;;;;5007642;28;20030;-75
2021/10/11 05:36:30;;;;;;;11.35;5.43;;;8.20;90.50;;;;;;5007291;28;20034;-75
2021/10/11 05:38:56;;;;;;;13.30;6.05;;;8.30;90.50;;;;;;5009084;28;20072;-74
2021/10/11 05:41:21;;;;;;;12.50;6.30;;;8.30;90.60;;;;;;5007257;28;20061;-76
2021/10/11 05:43:47;;;;;;;9.38;5.88;;;8.40;90.60;;;;;;5009039;28;20026;-71
2021/10/11 05:46:13;;;;;;;14.07;5.53;;;8.40;90.60;;;;;;5009555;28;20091;-71
2021/10/11 05:48:38;;;;;;;16.55;5.88;;;8.50;90.60;;;;;;5007676;28;20107;-72
2021/10/11 05:51:04;;;;;;;11.95;6.18;;;8.60;90.60;;;;;;5007323;28;20081;-71
2021/10/11 05:53:30;;;;;;;12.10;5.95;;;8.60;90.50;;;;;;5007712;28;20481;-72
2021/10/11 05:55:55;;;;;;;12.93;6.10;;;8.60;90.30;;;;;;5007695;28;20042;-72
2021/10/11 05:58:21;;;;;;;14.55;6.30;;;8.60;90.20;;;;;;5006761;28;20049;-77
2021/10/11 06:00:47;;;;;;;11.05;5.78;;;8.70;90.20;;;;;;4991155;28;20040;-71
2021/10/11 06:03:13;;;;;;;13.48;6.43;;;8.70;90.00;;;;;;5007193;28;20026;-74
2021/10/11 06:05:38;;;;;;;13.13;7.47;;;8.80;90.00;;;;;;5008130;28;20043;-71
2021/10/11 06:08:04;;;;;;;14.35;7.40;;;8.80;89.80;;;;;;5005411;28;20034;-72
2021/10/11 06:10:30;;;;;;;13.85;7.78;;;8.90;89.90;;;;;;5008266;28;20046;-71
2021/10/11 06:12:55;;;;;;;13.98;7.88;;;8.90;89.90;;;;;;5006129;28;20034;-71
2021/10/11 06:15:21;;;;;;;11.88;7.15;;;9.00;90.00;;;;;;5006978;28;20038;-72
2021/10/11 06:17:47;;;;;;;16.17;8.18;;;9.00;90.10;;;;;;5006425;28;20030;-72
2021/10/11 06:20:13;;;;;;;15.50;8.65;;;9.10;89.90;;;;;;4989081;28;20392;-71
2021/10/11 06:22:39;;;;;;;23.20;9.10;;;9.10;90.10;;;;;;5006305;28;20485;-72
2021/10/11 06:25:06;;;;;;;16.13;8.05;;;9.10;90.10;;;;;;5005822;28;20038;-71
2021/10/11 06:27:32;;;;;;;18.50;9.35;;;9.20;90.20;;;;;;5007148;28;20033;-71
2021/10/11 06:29:59;;;;;;;21.60;9.27;;;9.30;90.20;;;;;;5004951;28;20038;-71
2021/10/11 06:32:24;;;;;;;21.77;8.93;;;9.30;90.20;;;;;;5006578;28;20088;-71
2021/10/11 06:34:50;;;;;;;20.20;9.40;;;9.40;90.40;;;;;;5006251;28;20054;-71
2021/10/11 06:37:16;;;;;;;15.40;8.43;;;9.40;90.40;;;;;;5006565;28;20042;-72
2021/10/11 06:39:42;;;;;;;12.68;8.15;;;9.50;90.30;;;;;;5005619;28;20044;-69
2021/10/11 06:42:07;;;;;;;14.15;8.68;;;9.60;90.20;;;;;;5005907;28;20048;-70
2021/10/11 06:44:33;;;;;;;15.95;9.38;;;9.60;90.20;;;;;;4998229;28;20595;-71
2021/10/11 06:46:59;;;;;;;17.90;8.35;;;9.60;90.20;;;;;;4991743;28;20049;-70
2021/10/11 06:49:24;;;;;;;16.10;8.82;;;9.60;90.30;;;;;;5003577;28;20469;-69
2021/10/11 06:51:50;;;;;;;16.63;8.35;;;9.60;90.20;;;;;;5006562;28;20469;-70
2021/10/11 06:54:16;;;;;;;14.57;8.00;;;9.70;90.10;;;;;;5005724;28;20460;-70
2021/10/11 06:56:42;;;;;;;18.95;8.73;;;9.80;90.20;;;;;;5005669;28;20033;-71
2021/10/11 06:59:07;;;;;;;14.98;8.77;;;9.80;90.10;;;;;;5005575;28;20128;-73
2021/10/11 07:01:33;;;;;;;18.08;9.30;;;9.80;90.00;;;;;;5006024;28;20053;-70
2021/10/11 07:03:59;;;;;;;16.40;9.40;;;9.90;89.90;;;;;;5006744;28;20401;-69
2021/10/11 07:06:25;;;;;;;17.52;9.52;;;10.00;89.80;;;;;;5006506;28;20045;-70
2021/10/11 07:08:51;;;;;;;16.38;9.23;;;10.10;89.80;;;;;;5003486;28;20090;-72
2021/10/11 07:11:17;;;;;;;14.90;9.40;;;10.10;89.70;;;;;;5004309;28;20485;-69
2021/10/11 07:13:43;;;;;;;14.95;9.15;;;10.20;89.60;;;;;;5006527;28;20120;-70
2021/10/11 07:16:08;;;;;;;17.30;9.90;;;10.30;89.40;;;;;;5010740;28;20378;-70
2021/10/11 07:18:35;;;;;;;15.48;9.43;;;10.30;89.20;;;;;;5009551;28;20026;-70
2021/10/11 07:21:05;;;;;;;19.95;10.68;;;10.40;89.10;;;;;;5009029;28;20042;-70
2021/10/11 07:23:31;;;;;;;18.08;10.20;;;10.50;89.00;;;;;;5009918;28;20048;-73
2021/10/11 07:25:59;;;;;;;18.88;10.57;;;10.50;89.00;;;;;;5009131;28;20044;-69
2021/10/11 07:28:25;;;;;;;16.40;9.65;;;10.60;88.90;;;;;;5009604;28;20088;-69
2021/10/11 07:30:52;;;;;;;19.50;10.48;;;10.60;88.80;;;;;;5011337;28;20490;-69
2021/10/11 07:33:18;;;;;;;17.40;10.52;;;10.70;88.80;;;;;;5010087;28;20479;-71
2021/10/11 07:35:44;;;;;;;16.80;10.27;;;10.80;88.80;;;;;;5009609;28;20064;-69
2021/10/11 07:38:10;;;;;;;18.70;10.00;;;10.90;88.80;;;;;;5009765;28;20077;-70
2021/10/11 07:40:36;;;;;;;15.85;10.35;;;11.00;88.70;;;;;;5010214;28;20140;-69
2021/10/11 07:43:02;;;;;;;15.77;8.95;;;11.10;88.60;;;;;;5010113;28;20110;-69
2021/10/11 07:45:27;;;;;;;21.27;12.88;;;11.20;88.70;;;;;;5010705;28;20034;-69
2021/10/11 07:47:53;;;;;;;21.15;11.00;;;11.30;88.60;;;;;;5010549;28;20088;-69
2021/10/11 07:50:19;;;;;;;18.13;10.00;;;11.50;88.30;;;;;;5008778;28;20080;-69
2021/10/11 07:52:45;;;;;;;22.10;11.23;;;11.60;88.00;;;;;;5008888;28;20104;-70
2021/10/11 07:55:10;;;;;;;16.33;9.35;;;11.70;87.90;;;;;;5009807;28;20100;-69
2021/10/11 07:57:36;;;;;;;18.05;9.82;;;11.80;88.00;;;;;;5009452;28;20045;-71
2021/10/11 08:00:14;;;;;;;19.55;11.02;;;11.90;87.60;;;;;;5006897;28;20046;-70
2021/10/11 08:02:40;;;;;;;14.38;9.07;;;12.00;87.30;;;;;;5007363;28;20038;-69
2021/10/11 08:05:07;;;;;;;22.50;10.48;;;12.10;87.40;;;;;;5007955;28;20060;-73
2021/10/11 08:07:33;;;;;;;15.65;9.52;;;12.20;87.10;;;;;;5009195;28;20026;-70
2021/10/11 08:09:59;;;;;;;16.42;9.43;;;12.40;87.00;;;;;;5007810;28;20481;-70
2021/10/11 08:12:25;;;;;;;21.83;10.63;;;12.50;86.60;;;;;;4988475;28;20034;-69
2021/10/11 08:14:51;;;;;;;22.80;10.00;;;12.60;86.30;;;;;;5008948;28;20037;-70
2021/10/11 08:17:16;;;;;;;14.80;9.20;;;12.90;85.90;;;;;;5008917;28;20385;-70
2021/10/11 08:19:42;;;;;;;22.27;11.13;;;13.10;85.40;;;;;;5006803;28;21634;-73
2021/10/11 08:22:08;;;;;;;18.95;9.23;;;13.20;84.40;;;;;;5008664;28;20392;-70
2021/10/11 08:24:34;;;;;;;18.15;9.10;;;13.40;84.00;;;;;;5007626;28;20038;-70
2021/10/11 08:27:00;;;;;;;19.08;7.80;;;13.40;83.80;;;;;;5007631;28;20168;-69
2021/10/11 08:29:25;;;;;;;17.80;8.00;;;13.50;83.50;;;;;;5006987;28;20120;-69
2021/10/11 08:31:55;;;;;;;17.77;7.18;;;13.50;83.80;;;;;;5009581;28;20049;-72
2021/10/11 08:34:21;;;;;;;22.35;8.63;;;13.40;83.50;;;;;;5008787;28;20493;-69
2021/10/11 08:36:46;;;;;;;15.93;7.47;;;13.30;83.40;;;;;;5006693;28;20026;-70
2021/10/11 08:39:12;;;;;;;14.55;7.63;;;13.30;83.80;;;;;;5008013;28;20034;-69
2021/10/11 08:41:38;;;;;;;17.02;7.75;;;13.40;84.30;;;;;;5008215;28;20042;-71
2021/10/11 08:44:04;;;;;;;22.65;8.43;;;13.40;84.30;;;;;;5008470;28;20464;-68
2021/10/11 08:46:30;;;;;;;15.95;8.00;;;13.50;84.40;;;;;;5010485;28;20104;-69
2021/10/11 08:48:57;;;;;;;17.38;7.93;;;13.60;84.60;;;;;;5008918;28;20404;-69
2021/10/11 08:51:23;;;;;;;17.85;8.90;;;13.60;84.30;;;;;;5007840;28;20497;-68
2021/10/11 08:53:48;;;;;;;19.08;8.40;;;13.70;83.80;;;;;;5009684;28;20065;-70
2021/10/11 08:56:14;;;;;;;14.98;7.18;;;13.80;83.60;;;;;;5007676;28;20030;-69
2021/10/11 08:58:44;;;;;;;19.05;8.77;;;13.80;82.80;;;;;;5003827;28;20049;-69
2021/10/11 09:01:10;;;;;;;15.35;7.80;;;14.00;82.90;;;;;;5007782;28;20076;-68
2021/10/11 09:03:35;;;;;;;21.40;9.55;;;14.10;82.60;;;;;;5008732;28;20089;-71
2021/10/11 09:06:07;;;;;;;20.00;8.55;;;14.10;82.00;;;;;;5009472;28;20444;-70
2021/10/11 09:08:33;;;;;;;25.08;10.68;;;14.10;81.70;;;;;;5007629;28;20535;-69
2021/10/11 09:11:04;;;;;;;23.00;8.98;;;14.10;81.90;;;;;;5008849;28;20041;-72
2021/10/11 09:13:39;;;;;;;26.35;13.00;;;14.10;82.00;;;;;;5003422;28;20041;-71
2021/10/11 09:16:07;;;;;;;22.65;9.95;;;14.10;82.30;;;;;;5012336;28;20165;-69
2021/10/11 09:18:34;;;;;;;18.35;9.05;;;14.10;81.70;;;;;;5008712;28;20076;-72
2021/10/11 09:21:00;;;;;;;23.13;11.43;;;14.20;81.90;;;;;;5007365;28;20026;-70
2021/10/11 09:23:30;;;;;;;20.42;8.57;;;14.30;81.90;;;;;;5007992;28;20065;-69
2021/10/11 09:25:57;;;;;;;20.13;8.85;;;14.40;81.30;;;;;;4997908;28;20064;-70
2021/10/11 09:28:25;;;;;;;17.70;8.30;;;14.50;81.10;;;;;;5006396;28;20037;-69
2021/10/11 09:30:51;;;;;;;25.73;10.07;;;14.60;80.60;;;;;;5005376;28;20482;-72
2021/10/11 09:33:20;;;;;;;18.67;9.77;;;14.60;79.90;;;;;;5007182;28;20037;-69
2021/10/11 09:35:47;;;;;;;19.02;7.82;;;14.60;79.80;;;;;;5004807;28;20034;-75
2021/10/11 09:38:39;;;;;;;18.45;8.48;;;14.70;79.60;;;;;;5005501;28;20033;-70
2021/10/11 09:41:05;;;;;;;16.02;7.07;;;14.90;79.40;;;;;;5001738;28;20543;-72
2021/10/11 09:43:31;;;;;;;14.88;6.55;;;15.00;78.60;;;;;;5005474;28;20038;-69
2021/10/11 09:46:12;;;;;;;17.23;6.85;;;15.00;79.00;;;;;;5007798;28;20065;-70
2021/10/11 09:48:52;;;;;;;14.18;5.18;;;15.10;77.60;;;;;;5007042;28;20461;-70
2021/10/11 09:51:20;;;;;;;16.83;5.53;;;15.10;77.60;;;;;;5005577;28;20041;-72
2021/10/11 09:53:47;;;;;;;12.48;4.43;;;15.00;77.50;;;;;;5007367;28;20026;-69
2021/10/11 09:56:13;;;;;;;14.15;4.25;;;15.00;76.90;;;;;;5006967;28;20136;-71
2021/10/11 09:58:39;;;;;;;14.45;4.60;;;14.80;76.00;;;;;;5006362;28;20049;-69
2021/10/11 10:01:05;;;;;;;10.68;3.80;;;14.80;76.40;;;;;;5007163;28;20038;-69
2021/10/11 10:03:32;;;;;;;11.55;3.40;;;14.80;76.00;;;;;;5004510;28;20087;-74
2021/10/11 10:05:59;;;;;;;13.00;4.05;;;14.80;75.50;;;;;;5007777;28;20123;-69
2021/10/11 10:08:28;;;;;;;14.07;4.28;;;14.80;76.40;;;;;;5005365;28;20038;-69
2021/10/11 10:11:00;;;;;;;11.55;3.58;;;14.80;76.30;;;;;;5006176;28;20061;-70
2021/10/11 10:13:27;;;;;;;13.20;3.67;;;14.80;76.40;;;;;;5007873;28;20048;-69
2021/10/11 10:15:56;;;;;;;15.60;4.35;;;14.80;75.90;;;;;;5008068;28;20042;-70
2021/10/11 10:18:22;;;;;;;11.43;3.90;;;14.80;76.70;;;;;;5008153;28;20125;-71
2021/10/11 10:20:57;;;;;;;14.70;4.18;;;14.90;77.00;;;;;;5006573;28;20125;-69
2021/10/11 10:23:27;;;;;;;9.65;4.55;;;15.00;76.40;;;;;;5006367;28;20030;-71
2021/10/11 10:25:53;;;;;;;14.10;4.70;;;15.10;76.40;;;;;;5005871;28;20030;-70
2021/10/11 10:28:19;;;;;;;17.58;7.57;;;15.10;75.90;;;;;;5006513;28;20042;-69
2021/10/11 10:30:56;;;;;;;18.92;10.05;;;15.10;76.40;;;;;;5010699;28;20078;-70
2021/10/11 10:33:35;;;;;;;23.33;13.23;;;15.30;76.50;;;;;;4987189;28;20085;-75
2021/10/11 10:36:02;;;;;;;16.02;5.55;;;15.30;75.80;;;;;;5006683;28;20489;-70
2021/10/11 10:38:27;;;;;;;13.18;3.88;;;15.50;74.80;;;;;;5006676;28;20045;-69
2021/10/11 10:40:54;;;;;;;15.63;4.07;;;15.40;74.30;;;;;;5007267;28;20046;-70
2021/10/11 10:43:20;;;;;;;15.88;3.83;;;15.40;74.30;;;;;;5005821;28;20042;-70
2021/10/11 10:45:50;;;;;;;13.52;3.25;;;15.50;73.60;;;;;;5008100;28;20034;-74
2021/10/11 10:48:26;;;;;;;15.82;3.58;;;15.50;73.00;;;;;;5004993;28;20169;-70
2021/10/11 10:50:57;;;;;;;12.73;3.30;;;15.60;74.40;;;;;;5007846;28;20054;-72
2021/10/11 10:53:27;;;;;;;13.02;3.75;;;15.60;73.30;;;;;;5006028;28;20034;-70
2021/10/11 10:55:53;;;;;;;18.40;4.15;;;15.60;72.70;;;;;;5007738;28;20037;-70
2021/10/11 10:58:21;;;;;;;17.08;6.40;;;15.80;73.00;;;;;;5004559;28;20048;-72
2021/10/11 11:00:47;;;;;;;15.95;6.55;;;15.90;71.90;;;;;;5004965;28;20076;-70
2021/10/11 11:03:14;;;;;;;17.77;4.53;;;15.90;71.20;;;;;;4996502;28;20393;-71
2021/10/11 11:05:42;;;;;;;12.60;3.13;;;15.80;70.60;;;;;;5003450;28;20445;-71
2021/10/11 11:08:09;;;;;;;11.30;2.55;;;15.80;71.70;;;;;;5008059;28;20045;-68
2021/10/11 11:10:38;;;;;;;13.20;3.10;;;15.90;71.40;;;;;;5006174;28;20042;-72
2021/10/11 11:13:16;;;;;;;11.38;2.67;;;15.90;71.50;;;;;;5006118;28;20052;-68
2021/10/11 11:15:52;;;;;;;10.60;3.28;;;15.80;71.50;;;;;;5005873;28;20026;-70
2021/10/11 11:18:18;;;;;;;11.63;2.97;;;16.10;71.90;;;;;;5005150;28;20034;-69
2021/10/11 11:20:45;;;;;;;14.80;3.03;;;16.00;71.00;;;;;;5004965;28;20050;-73
2021/10/11 11:23:21;;;;;;;12.38;2.95;;;16.00;70.40;;;;;;5006465;28;20362;-68
2021/10/11 11:25:49;;;;;;;13.60;3.28;;;16.00;69.70;;;;;;5006109;28;20578;-72
2021/10/11 11:28:18;;;;;;;12.10;3.08;;;15.80;70.40;;;;;;5004182;28;20449;-70
2021/10/11 11:30:46;;;;;;;12.45;2.60;;;16.10;70.50;;;;;;5013449;28;20103;-68
2021/10/11 11:33:15;;;;;;;15.57;2.90;;;16.10;69.50;;;;;;4984774;28;20480;-70
2021/10/11 11:35:48;;;;;;;9.85;2.65;;;16.30;69.40;;;;;;5004494;28;20038;-72
2021/10/11 11:38:16;;;;;;;11.80;4.38;;;16.40;69.00;;;;;;5002924;28;20042;-68
2021/10/11 11:40:45;;;;;;;18.13;7.32;;;16.50;69.40;;;;;;5005728;28;20048;-69
2021/10/11 11:43:12;;;;;;;20.10;5.95;;;16.50;67.50;;;;;;5001415;28;20468;-72
2021/10/11 11:45:52;;;;;;;16.05;3.85;;;16.60;68.50;;;;;;5004338;28;20259;-69
2021/10/11 11:48:26;;;;;;;7.88;1.95;;;16.70;67.80;;;;;;5004996;28;20105;-71
2021/10/11 11:50:58;;;;;;;13.77;2.83;;;16.70;67.40;;;;;;5005369;28;20134;-69
2021/10/11 11:53:25;;;;;;;12.35;2.50;;;16.50;67.20;;;;;;5003862;28;20041;-68
2021/10/11 11:55:56;;;;;;;10.45;2.33;;;16.40;67.90;;;;;;5005801;28;20061;-69
2021/10/11 11:58:34;;;;;;;14.90;2.72;;;16.20;69.00;;;;;;5002982;28;20073;-73
2021/10/11 12:01:08;;;;;;;11.75;2.50;;;16.10;68.90;;;;;;5008480;28;20053;-70
2021/10/11 12:03:37;;;;;;;13.65;3.20;;;16.10;68.30;;;;;;5009636;28;20396;-70
2021/10/11 12:06:04;;;;;;;9.35;2.38;;;16.20;68.80;;;;;;5008819;28;20034;-72
2021/10/11 12:08:31;;;;;;;11.88;2.78;;;16.40;68.20;;;;;;5009673;28;20030;-70
2021/10/11 12:11:02;;;;;;;13.65;2.90;;;16.40;68.20;;;;;;4991959;28;20046;-70
2021/10/11 12:13:36;;;;;;;13.27;2.83;;;16.30;69.40;;;;;;5008886;28;20038;-70
2021/10/11 12:16:06;;;;;;;10.82;2.38;;;16.10;68.50;;;;;;5008916;28;20042;-71
2021/10/11 12:18:44;;;;;;;9.30;1.90;;;16.20;69.00;;;;;;5009193;28;20105;-70
2021/10/11 12:21:40;;;;;;;10.27;2.13;;;16.30;68.40;;;;;;5009264;28;20120;-70
2021/10/11 12:24:12;;;;;;;7.80;2.10;;;16.40;68.50;;;;;;5000066;28;20037;-71
2021/10/11 12:26:46;;;;;;;7.93;2.20;;;16.50;68.60;;;;;;5008483;28;20758;-70
2021/10/11 12:29:12;;;;;;;12.77;2.58;;;16.60;68.10;;;;;;5008469;28;20057;-75
2021/10/11 12:31:38;;;;;;;10.63;2.85;;;16.60;68.80;;;;;;5006832;28;20062;-70
2021/10/11 12:34:10;;;;;;;13.20;2.40;;;16.80;70.00;;;;;;5005784;28;20476;-69
2021/10/11 12:36:51;;;;;;;9.90;2.60;;;17.00;67.30;;;;;;5008878;28;20026;-70
2021/10/11 12:39:18;;;;;;;12.52;2.95;;;17.20;68.40;;;;;;5006345;28;20046;-70
2021/10/11 12:41:49;;;;;;;11.05;2.60;;;17.10;67.20;;;;;;4990208;28;20716;-69